Terminal Aerodrome Forecast
Issued by NWS Knoxville/Tri Cities, TN

Home | Current Version | Previous Version | Text Only | Print | Product List | Glossary On
Versions: 1 2 3 4 5 6 7 8 9 10 11 12 13 14 15 16 17 18 19 20 21 22 23 24 25 26 27 28 29 30 31 32 33 34 35 36 37
000
FTUS44 KMRX 240124 AAA
TAFCHA
TAF AMD
KCHA 240124Z 2401/2424 VRB03KT 3SM -SHRA BR SCT010 BKN025
      TEMPO 2401/2405 1 1/2SM SHRA BR SCT007 OVC015
     FM240700 VRB03KT P6SM -SHRA SCT010 BKN025
     FM241300 25005KT P6SM SCT015 BKN030
     FM241800 29010KT P6SM VCTS BKN045CB=

USA.gov is the U.S. government's official web portal to all federal, state and local government web resources and services.